PWSweather.com
Personal Weather Stations
Station Observations
PENICUIKWS
PenicuikGB

PenicuikGB

Lat: 55.830932, Lon: -3.224533000000065

Elevation: 166

Station Type: Fine Offset

http://weather.penicuik.org

High Low Average
Temperature 40.8°F4.9°F 32.4°F0.2°F 36.5°F2.5°F
Dew Point 38.2°F3.4°F 28.9°F-1.7°F 33.2°F0.7°F
Winds 5.4 mph WSW8.7 mph WSW 0.8 mph 1.3 mph 2.6 mph 4.2 mph
Wind Gusts 9.2 mph14.8 mph 1.6 mph2.6 mph 4.8 mph7.7 mph
Humidity 93% 80% 88%
Pressure 29.36 in994.20 in 29.00 in982.10 in -
Precipitation 0.22 in5.60 in - -
Hour Temp Dew Point Humidity Winds Wind Gusts Pressure Precip Precip Rate Daily Precip Total
12:00 AM 36.5°F2.5°C 32.7°F0.4°C 86% 1.0 mph WSW1.6 kmh WSW 1.6 mph2.6 kmh 29.36 in994.2 mb 0.00 in0.0 mm 0.00 in0.0 mm 0.00 in0.0 mm
12:45 AM 36.1°F2.3°C 32.7°F0.4°C 87% 1.6 mph W2.6 kmh W 2.2 mph3.5 kmh 29.35 in993.9 mb 0.00 in0.0 mm 0.00 in0.0 mm 0.00 in0.0 mm
01:00 AM 36.0°F2.2°C 32.5°F0.3°C 87% 2.1 mph WNW3.4 kmh WNW 3.8 mph6.1 kmh 29.35 in993.9 mb 0.00 in0.0 mm 0.00 in0.0 mm 0.00 in0.0 mm
01:15 AM 35.8°F2.1°C 32.3°F0.2°C 87% 2.1 mph SW3.4 kmh SW 2.2 mph3.5 kmh 29.35 in993.9 mb 0.00 in0.0 mm 0.00 in0.0 mm 0.00 in0.0 mm
01:30 AM 36.0°F2.2°C 32.5°F0.3°C 87% 1.4 mph NW2.3 kmh NW 3.1 mph5.0 kmh 29.35 in993.9 mb 0.00 in0.0 mm 0.00 in0.0 mm 0.00 in0.0 mm
01:45 AM 36.5°F2.5°C 33.0°F0.6°C 87% 2.0 mph WSW3.2 kmh WSW 3.8 mph6.1 kmh 29.35 in993.9 mb 0.00 in0.0 mm 0.00 in0.0 mm 0.00 in0.0 mm
02:00 AM 37.0°F2.8°C 33.8°F1.0°C 88% 1.7 mph NNE2.7 kmh NNE 3.1 mph5.0 kmh 29.34 in993.6 mb 0.00 in0.0 mm 0.00 in0.0 mm 0.00 in0.0 mm
02:15 AM 36.5°F2.5°C 33.0°F0.6°C 87% 1.5 mph S2.4 kmh S 3.1 mph5.0 kmh 29.35 in993.9 mb 0.00 in0.0 mm 0.00 in0.0 mm 0.00 in0.0 mm
02:45 AM 36.1°F2.3°C 32.9°F0.5°C 88% 1.5 mph SW2.4 kmh SW 3.8 mph6.1 kmh 29.35 in993.9 mb 0.00 in0.0 mm 0.00 in0.0 mm 0.00 in0.0 mm
03:00 AM 36.7°F2.6°C 33.5°F0.8°C 88% 1.8 mph NE2.9 kmh NE 3.1 mph5.0 kmh 29.35 in993.9 mb 0.00 in0.0 mm 0.00 in0.0 mm 0.00 in0.0 mm
03:15 AM 37.2°F2.9°C 34.0°F1.1°C 88% 1.6 mph W2.6 kmh W 3.1 mph5.0 kmh 29.34 in993.6 mb 0.00 in0.0 mm 0.00 in0.0 mm 0.00 in0.0 mm
03:30 AM 37.2°F2.9°C 34.0°F1.1°C 88% 2.4 mph W3.9 kmh W 4.5 mph7.2 kmh 29.33 in993.2 mb 0.00 in0.0 mm 0.00 in0.0 mm 0.00 in0.0 mm
03:45 AM 37.0°F2.8°C 33.8°F1.0°C 88% 1.0 mph NW1.6 kmh NW 2.2 mph3.5 kmh 29.33 in993.2 mb 0.00 in0.0 mm 0.00 in0.0 mm 0.00 in0.0 mm
04:15 AM 37.2°F2.9°C 34.0°F1.1°C 88% 1.3 mph NW2.1 kmh NW 3.1 mph5.0 kmh 29.31 in992.6 mb 0.00 in0.0 mm 0.00 in0.0 mm 0.00 in0.0 mm
04:30 AM 37.6°F3.1°C 35.7°F2.1°C 93% 2.3 mph W3.7 kmh W 4.5 mph7.2 kmh 29.30 in992.2 mb 0.00 in0.0 mm 0.00 in0.0 mm 0.00 in0.0 mm
04:45 AM 37.9°F3.3°C 36.1°F2.3°C 93% 2.5 mph NW4.0 kmh NW 7.6 mph12.2 kmh 29.30 in992.2 mb 0.01 in0.3 mm 0.04 in1.0 mm 0.01 in0.3 mm
05:00 AM 38.1°F3.4°C 36.3°F2.4°C 93% 1.8 mph W2.9 kmh W 3.1 mph5.0 kmh 29.29 in991.9 mb 0.01 in0.3 mm 0.00 in0.0 mm 0.01 in0.3 mm
05:15 AM 38.3°F3.5°C 36.5°F2.5°C 93% 2.4 mph W3.9 kmh W 6.9 mph11.1 kmh 29.28 in991.5 mb 0.01 in0.3 mm 0.00 in0.0 mm 0.01 in0.3 mm
05:30 AM 38.3°F3.5°C 36.5°F2.5°C 93% 2.4 mph W3.9 kmh W 5.4 mph8.7 kmh 29.27 in991.2 mb 0.01 in0.3 mm 0.00 in0.0 mm 0.01 in0.3 mm
05:45 AM 38.3°F3.5°C 36.5°F2.5°C 93% 1.5 mph N2.4 kmh N 2.2 mph3.5 kmh 29.25 in990.5 mb 0.00 in0.0 mm 0.00 in0.0 mm 0.01 in0.3 mm
06:00 AM 38.1°F3.4°C 36.3°F2.4°C 93% 2.2 mph N3.5 kmh N 3.8 mph6.1 kmh 29.23 in989.8 mb 0.00 in0.0 mm 0.00 in0.0 mm 0.01 in0.3 mm
06:15 AM 38.1°F3.4°C 36.3°F2.4°C 93% 2.3 mph SW3.7 kmh SW 3.8 mph6.1 kmh 29.22 in989.5 mb 0.00 in0.0 mm 0.00 in0.0 mm 0.01 in0.3 mm
06:45 AM 38.3°F3.5°C 36.2°F2.3°C 92% 2.9 mph WNW4.7 kmh WNW 5.4 mph8.7 kmh 29.20 in988.8 mb 0.00 in0.0 mm 0.00 in0.0 mm 0.01 in0.3 mm
07:00 AM 39.0°F3.9°C 36.9°F2.7°C 92% 2.9 mph NNW4.7 kmh NNW 6.9 mph11.1 kmh 29.19 in988.5 mb 0.00 in0.0 mm 0.00 in0.0 mm 0.01 in0.3 mm
07:15 AM 39.4°F4.1°C 37.0°F2.8°C 91% 4.1 mph W6.6 kmh W 6.9 mph11.1 kmh 29.18 in988.1 mb 0.01 in0.3 mm 0.04 in1.0 mm 0.02 in0.5 mm
07:30 AM 39.4°F4.1°C 37.0°F2.8°C 91% 3.9 mph SSE6.3 kmh SSE 6.0 mph9.7 kmh 29.16 in987.5 mb 0.01 in0.3 mm 0.00 in0.0 mm 0.02 in0.5 mm
07:45 AM 39.2°F4.0°C 36.5°F2.5°C 90% 2.9 mph WNW4.7 kmh WNW 4.5 mph7.2 kmh 29.16 in987.5 mb 0.02 in0.5 mm 0.04 in1.0 mm 0.04 in1.0 mm
08:00 AM 39.2°F4.0°C 36.5°F2.5°C 90% 2.8 mph N4.5 kmh N 5.4 mph8.7 kmh 29.15 in987.1 mb 0.02 in0.5 mm 0.00 in0.0 mm 0.04 in1.0 mm
08:15 AM 39.4°F4.1°C 37.0°F2.8°C 91% 4.7 mph WSW7.6 kmh WSW 7.6 mph12.2 kmh 29.14 in986.8 mb 0.01 in0.3 mm 0.00 in0.0 mm 0.04 in1.0 mm
08:30 AM 39.7°F4.3°C 37.3°F2.9°C 91% 2.9 mph N4.7 kmh N 4.5 mph7.2 kmh 29.12 in986.1 mb 0.00 in0.0 mm 0.00 in0.0 mm 0.04 in1.0 mm
08:45 AM 39.7°F4.3°C 37.3°F2.9°C 91% 4.4 mph SE7.1 kmh SE 6.9 mph11.1 kmh 29.12 in986.1 mb 0.00 in0.0 mm 0.00 in0.0 mm 0.04 in1.0 mm
09:00 AM 39.9°F4.4°C 37.5°F3.1°C 91% 5.0 mph W8.0 kmh W 6.0 mph9.7 kmh 29.12 in986.1 mb 0.00 in0.0 mm 0.00 in0.0 mm 0.04 in1.0 mm
09:15 AM 40.6°F4.8°C 38.2°F3.4°C 91% 5.3 mph W8.5 kmh W 6.0 mph9.7 kmh 29.10 in985.4 mb 0.00 in0.0 mm 0.00 in0.0 mm 0.04 in1.0 mm
09:30 AM 40.6°F4.8°C 38.2°F3.4°C 91% 3.9 mph NW6.3 kmh NW 6.9 mph11.1 kmh 29.09 in985.1 mb 0.00 in0.0 mm 0.00 in0.0 mm 0.04 in1.0 mm
09:45 AM 40.6°F4.8°C 37.9°F3.3°C 90% 5.1 mph WNW8.2 kmh WNW 8.3 mph13.4 kmh 29.10 in985.4 mb 0.00 in0.0 mm 0.00 in0.0 mm 0.04 in1.0 mm
10:00 AM 40.8°F4.9°C 38.1°F3.4°C 90% 5.4 mph WSW8.7 kmh WSW 7.6 mph12.2 kmh 29.10 in985.4 mb 0.00 in0.0 mm 0.00 in0.0 mm 0.04 in1.0 mm
10:15 AM 40.6°F4.8°C 37.7°F3.2°C 89% 5.0 mph S8.0 kmh S 9.2 mph14.8 kmh 29.09 in985.1 mb 0.01 in0.3 mm 0.04 in1.0 mm 0.05 in1.3 mm
10:30 AM 40.5°F4.7°C 37.2°F2.9°C 88% 3.5 mph SW5.6 kmh SW 5.4 mph8.7 kmh 29.08 in984.8 mb 0.01 in0.3 mm 0.00 in0.0 mm 0.05 in1.3 mm
10:45 AM 39.7°F4.3°C 36.2°F2.3°C 87% 4.4 mph NW7.1 kmh NW 9.2 mph14.8 kmh 29.09 in985.1 mb 0.01 in0.3 mm 0.00 in0.0 mm 0.05 in1.3 mm
11:00 AM 39.6°F4.2°C 36.0°F2.2°C 87% 4.1 mph WSW6.6 kmh WSW 6.0 mph9.7 kmh 29.09 in985.1 mb 0.00 in0.0 mm 0.00 in0.0 mm 0.05 in1.3 mm
11:15 AM 39.6°F4.2°C 36.0°F2.2°C 87% 2.5 mph SW4.0 kmh SW 4.5 mph7.2 kmh 29.08 in984.8 mb 0.00 in0.0 mm 0.00 in0.0 mm 0.05 in1.3 mm
11:30 AM 39.6°F4.2°C 35.7°F2.1°C 86% 3.0 mph W4.8 kmh W 5.4 mph8.7 kmh 29.08 in984.8 mb 0.00 in0.0 mm 0.00 in0.0 mm 0.05 in1.3 mm
11:45 AM 39.6°F4.2°C 35.4°F1.9°C 85% 3.1 mph SSW5.0 kmh SSW 5.4 mph8.7 kmh 29.08 in984.8 mb 0.00 in0.0 mm 0.00 in0.0 mm 0.05 in1.3 mm
12:00 PM 39.0°F3.9°C 34.9°F1.6°C 85% 3.4 mph SW5.5 kmh SW 6.9 mph11.1 kmh 29.08 in984.8 mb 0.01 in0.3 mm 0.01 in0.3 mm 0.06 in1.5 mm
12:15 PM 37.9°F3.3°C 33.8°F1.0°C 85% 2.7 mph SSE4.3 kmh SSE 4.5 mph7.2 kmh 29.08 in984.8 mb 0.02 in0.5 mm 0.04 in1.0 mm 0.07 in1.8 mm
12:30 PM 37.8°F3.2°C 34.0°F1.1°C 86% 2.2 mph SW3.5 kmh SW 4.5 mph7.2 kmh 29.06 in984.1 mb 0.02 in0.5 mm 0.00 in0.0 mm 0.07 in1.8 mm
12:45 PM 38.1°F3.4°C 34.6°F1.4°C 87% 3.6 mph SW5.8 kmh SW 6.0 mph9.7 kmh 29.06 in984.1 mb 0.02 in0.5 mm 0.00 in0.0 mm 0.07 in1.8 mm
01:00 PM 37.9°F3.3°C 33.8°F1.0°C 85% 3.6 mph W5.8 kmh W 5.4 mph8.7 kmh 29.05 in983.7 mb 0.01 in0.3 mm 0.00 in0.0 mm 0.07 in1.8 mm
01:15 PM 37.9°F3.3°C 33.8°F1.0°C 85% 2.8 mph SSW4.5 kmh SSW 3.8 mph6.1 kmh 29.05 in983.7 mb 0.00 in0.0 mm 0.00 in0.0 mm 0.07 in1.8 mm
01:30 PM 37.2°F2.9°C 31.6°F-0.2°C 80% 2.3 mph S3.7 kmh S 5.4 mph8.7 kmh 29.05 in983.7 mb 0.00 in0.0 mm 0.00 in0.0 mm 0.07 in1.8 mm
01:45 PM 36.5°F2.5°C 30.9°F-0.6°C 80% 3.0 mph WSW4.8 kmh WSW 6.0 mph9.7 kmh 29.05 in983.7 mb 0.00 in0.0 mm 0.00 in0.0 mm 0.07 in1.8 mm
02:00 PM 36.0°F2.2°C 30.4°F-0.9°C 80% 2.3 mph SW3.7 kmh SW 3.1 mph5.0 kmh 29.05 in983.7 mb 0.00 in0.0 mm 0.00 in0.0 mm 0.07 in1.8 mm
02:15 PM 36.1°F2.3°C 31.2°F-0.4°C 82% 2.8 mph NW4.5 kmh NW 6.9 mph11.1 kmh 29.04 in983.4 mb 0.00 in0.0 mm 0.00 in0.0 mm 0.07 in1.8 mm
03:00 PM 35.8°F2.1°C 30.8°F-0.7°C 82% 1.7 mph NNW2.7 kmh NNW 3.1 mph5.0 kmh 29.04 in983.4 mb 0.00 in0.0 mm 0.00 in0.0 mm 0.07 in1.8 mm
03:15 PM 35.4°F1.9°C 30.8°F-0.7°C 83% 2.0 mph NE3.2 kmh NE 3.8 mph6.1 kmh 29.02 in982.7 mb 0.00 in0.0 mm 0.00 in0.0 mm 0.07 in1.8 mm
03:30 PM 34.9°F1.6°C 30.6°F-0.8°C 84% 2.3 mph NW3.7 kmh NW 4.5 mph7.2 kmh 29.03 in983.1 mb 0.00 in0.0 mm 0.00 in0.0 mm 0.07 in1.8 mm
03:45 PM 34.3°F1.3°C 30.0°F-1.1°C 84% 1.6 mph NW2.6 kmh NW 3.8 mph6.1 kmh 29.03 in983.1 mb 0.00 in0.0 mm 0.00 in0.0 mm 0.07 in1.8 mm
04:00 PM 34.5°F1.4°C 30.2°F-1.0°C 84% 2.6 mph SSE4.2 kmh SSE 3.8 mph6.1 kmh 29.03 in983.1 mb 0.00 in0.0 mm 0.00 in0.0 mm 0.07 in1.8 mm
04:30 PM 34.7°F1.5°C 31.0°F-0.6°C 86% 2.1 mph NE3.4 kmh NE 3.8 mph6.1 kmh 29.02 in982.7 mb 0.00 in0.0 mm 0.00 in0.0 mm 0.07 in1.8 mm
04:45 PM 34.2°F1.2°C 30.4°F-0.9°C 86% 1.4 mph WNW2.3 kmh WNW 2.2 mph3.5 kmh 29.02 in982.7 mb 0.00 in0.0 mm 0.00 in0.0 mm 0.07 in1.8 mm
05:00 PM 34.0°F1.1°C 30.2°F-1.0°C 86% 0.8 mph W1.3 kmh W 2.2 mph3.5 kmh 29.02 in982.7 mb 0.00 in0.0 mm 0.00 in0.0 mm 0.07 in1.8 mm
05:15 PM 33.6°F0.9°C 30.2°F-1.0°C 87% 0.8 mph W1.3 kmh W 2.2 mph3.5 kmh 29.02 in982.7 mb 0.00 in0.0 mm 0.00 in0.0 mm 0.07 in1.8 mm
05:30 PM 33.8°F1.0°C 30.1°F-1.1°C 86% 3.6 mph W5.8 kmh W 8.3 mph13.4 kmh 29.02 in982.7 mb 0.00 in0.0 mm 0.00 in0.0 mm 0.07 in1.8 mm
05:45 PM 33.3°F0.7°C 29.8°F-1.2°C 87% 1.0 mph W1.6 kmh W 3.1 mph5.0 kmh 29.02 in982.7 mb 0.00 in0.0 mm 0.00 in0.0 mm 0.07 in1.8 mm
06:00 PM 33.3°F0.7°C 29.8°F-1.2°C 87% 1.0 mph W1.6 kmh W 3.8 mph6.1 kmh 29.02 in982.7 mb 0.00 in0.0 mm 0.00 in0.0 mm 0.07 in1.8 mm
06:15 PM 34.0°F1.1°C 30.5°F-0.8°C 87% 1.8 mph W2.9 kmh W 3.8 mph6.1 kmh 29.02 in982.7 mb 0.00 in0.0 mm 0.00 in0.0 mm 0.07 in1.8 mm
06:30 PM 34.2°F1.2°C 30.7°F-0.7°C 87% 1.8 mph W2.9 kmh W 3.8 mph6.1 kmh 29.02 in982.7 mb 0.00 in0.0 mm 0.00 in0.0 mm 0.07 in1.8 mm
06:45 PM 34.5°F1.4°C 31.3°F-0.4°C 88% 2.0 mph NNW3.2 kmh NNW 3.8 mph6.1 kmh 29.02 in982.7 mb 0.00 in0.0 mm 0.00 in0.0 mm 0.07 in1.8 mm
07:00 PM 34.5°F1.4°C 31.3°F-0.4°C 88% 2.4 mph W3.9 kmh W 5.4 mph8.7 kmh 29.02 in982.7 mb 0.00 in0.0 mm 0.00 in0.0 mm 0.07 in1.8 mm
07:15 PM 34.5°F1.4°C 31.3°F-0.4°C 88% 2.7 mph W4.3 kmh W 5.4 mph8.7 kmh 29.01 in982.4 mb 0.00 in0.0 mm 0.00 in0.0 mm 0.07 in1.8 mm
07:30 PM 34.5°F1.4°C 31.3°F-0.4°C 88% 3.2 mph WSW5.1 kmh WSW 5.4 mph8.7 kmh 29.01 in982.4 mb 0.00 in0.0 mm 0.00 in0.0 mm 0.07 in1.8 mm
07:45 PM 34.7°F1.5°C 31.5°F-0.3°C 88% 3.1 mph S5.0 kmh S 6.9 mph11.1 kmh 29.02 in982.7 mb 0.00 in0.0 mm 0.00 in0.0 mm 0.07 in1.8 mm
08:00 PM 34.7°F1.5°C 31.5°F-0.3°C 88% 2.9 mph WSW4.7 kmh WSW 4.5 mph7.2 kmh 29.01 in982.4 mb 0.00 in0.0 mm 0.00 in0.0 mm 0.07 in1.8 mm
08:15 PM 34.7°F1.5°C 31.5°F-0.3°C 88% 3.3 mph SSW5.3 kmh SSW 6.0 mph9.7 kmh 29.01 in982.4 mb 0.00 in0.0 mm 0.00 in0.0 mm 0.07 in1.8 mm
08:30 PM 34.7°F1.5°C 31.2°F-0.4°C 87% 4.2 mph SSE6.8 kmh SSE 7.6 mph12.2 kmh 29.00 in982.1 mb 0.00 in0.0 mm 0.00 in0.0 mm 0.07 in1.8 mm
09:00 PM 33.8°F1.0°C 30.1°F-1.1°C 86% 1.9 mph NW3.1 kmh NW 3.8 mph6.1 kmh 29.00 in982.1 mb 0.00 in0.0 mm 0.00 in0.0 mm 0.07 in1.8 mm
09:15 PM 33.4°F0.8°C 30.0°F-1.1°C 87% 2.0 mph NW3.2 kmh NW 6.0 mph9.7 kmh 29.01 in982.4 mb 0.00 in0.0 mm 0.00 in0.0 mm 0.07 in1.8 mm
09:30 PM 33.1°F0.6°C 29.6°F-1.3°C 87% 2.0 mph NW3.2 kmh NW 3.8 mph6.1 kmh 29.01 in982.4 mb 0.00 in0.0 mm 0.00 in0.0 mm 0.07 in1.8 mm
09:45 PM 32.9°F0.5°C 29.5°F-1.4°C 87% 2.5 mph NW4.0 kmh NW 6.0 mph9.7 kmh 29.02 in982.7 mb 0.00 in0.0 mm 0.00 in0.0 mm 0.07 in1.8 mm
10:00 PM 32.5°F0.3°C 29.1°F-1.6°C 87% 1.5 mph NW2.4 kmh NW 3.1 mph5.0 kmh 29.02 in982.7 mb 0.00 in0.0 mm 0.00 in0.0 mm 0.07 in1.8 mm
10:15 PM 32.9°F0.5°C 29.5°F-1.4°C 87% 1.1 mph NW1.8 kmh NW 2.2 mph3.5 kmh 29.01 in982.4 mb 0.00 in0.0 mm 0.00 in0.0 mm 0.07 in1.8 mm
10:30 PM 33.1°F0.6°C 29.6°F-1.3°C 87% 1.5 mph NW2.4 kmh NW 3.1 mph5.0 kmh 29.01 in982.4 mb 0.00 in0.0 mm 0.00 in0.0 mm 0.07 in1.8 mm
10:45 PM 33.1°F0.6°C 29.6°F-1.3°C 87% 1.8 mph NW2.9 kmh NW 3.8 mph6.1 kmh 29.01 in982.4 mb 0.00 in0.0 mm 0.00 in0.0 mm 0.07 in1.8 mm
11:00 PM 32.9°F0.5°C 29.5°F-1.4°C 87% 2.7 mph NW4.3 kmh NW 7.6 mph12.2 kmh 29.01 in982.4 mb 0.00 in0.0 mm 0.00 in0.0 mm 0.07 in1.8 mm
11:15 PM 32.5°F0.3°C 29.1°F-1.6°C 87% 2.5 mph NW4.0 kmh NW 6.9 mph11.1 kmh 29.01 in982.4 mb 0.00 in0.0 mm 0.00 in0.0 mm 0.07 in1.8 mm
11:30 PM 32.5°F0.3°C 29.1°F-1.6°C 87% 3.4 mph NW5.5 kmh NW 6.0 mph9.7 kmh 29.01 in982.4 mb 0.00 in0.0 mm 0.00 in0.0 mm 0.07 in1.8 mm
11:45 PM 32.4°F0.2°C 28.9°F-1.7°C 87% 2.3 mph NW3.7 kmh NW 4.5 mph7.2 kmh 29.01 in982.4 mb 0.00 in0.0 mm 0.00 in0.0 mm 0.07 in1.8 mm